createdAt,value
2022-11-29T00:01:16.516Z,64.03
2022-11-29T00:03:43.418Z,31.77
2022-11-29T00:06:14.847Z,61.23
2022-11-29T00:08:41.997Z,40.27
2022-11-29T00:11:12.800Z,60.03
2022-11-29T00:13:39.827Z,65.37
2022-11-29T00:16:10.678Z,22.40
2022-11-29T00:18:37.591Z,34.30
2022-11-29T00:21:10.178Z,57.67
2022-11-29T00:23:36.967Z,29.23
2022-11-29T00:26:07.100Z,24.33
2022-11-29T00:28:34.476Z,24.47
2022-11-29T00:31:01.448Z,34.17
2022-11-29T00:33:28.325Z,44.93
2022-11-29T00:35:55.131Z,85.67
2022-11-29T00:38:21.902Z,99.67
2022-11-29T00:40:52.765Z,67.90
2022-11-29T00:43:19.571Z,27.37
2022-11-29T00:45:46.365Z,29.03
2022-11-29T00:48:13.256Z,45.50
2022-11-29T00:50:40.098Z,33.77
2022-11-29T00:53:06.870Z,56.40
2022-11-29T00:55:33.645Z,42.93
2022-11-29T00:58:00.458Z,27.67
2022-11-29T01:00:27.253Z,36.27
2022-11-29T01:02:54.508Z,43.80
2022-11-29T01:05:21.311Z,43.77
2022-11-29T01:07:48.207Z,33.73
2022-11-29T01:10:15.013Z,38.50
2022-11-29T01:12:41.777Z,34.33
2022-11-29T01:15:09.256Z,58.73
2022-11-29T01:17:36.565Z,21.73
2022-11-29T01:20:04.422Z,28.97
2022-11-29T01:22:31.190Z,35.93
2022-11-29T01:24:58.028Z,45.80
2022-11-29T01:27:24.949Z,35.43
2022-11-29T01:29:51.718Z,46.40
2022-11-29T01:32:18.558Z,25.77
2022-11-29T01:34:45.528Z,21.43
2022-11-29T01:37:12.464Z,53.50
2022-11-29T01:39:39.445Z,23.30
2022-11-29T01:42:06.217Z,30.33
2022-11-29T01:44:33.061Z,38.07
2022-11-29T01:46:59.837Z,57.27
2022-11-29T01:49:42.920Z,22.00
2022-11-29T01:52:23.982Z,24.63
2022-11-29T01:54:52.530Z,31.00
2022-11-29T01:57:19.341Z,22.40
2022-11-29T01:59:50.791Z,20.30
2022-11-29T02:02:42.376Z,22.83
2022-11-29T02:05:09.541Z,23.23
2022-11-29T02:07:36.693Z,43.70
2022-11-29T02:10:03.882Z,64.77
2022-11-29T02:12:39.617Z,37.93
2022-11-29T02:15:28.044Z,33.50
2022-11-29T02:18:12.710Z,86.57
2022-11-29T02:21:09.264Z,54.20
2022-11-29T02:24:13.753Z,27.83
2022-11-29T02:26:59.164Z,67.53
2022-11-29T02:29:56.614Z,32.17
2022-11-29T02:32:42.157Z,35.97
2022-11-29T02:35:32.089Z,57.97
2022-11-29T02:38:21.628Z,39.80
2022-11-29T02:40:54.065Z,21.67
2022-11-29T02:43:39.015Z,46.63
2022-11-29T02:46:33.155Z,34.60
2022-11-29T02:49:22.384Z,60.47
2022-11-29T02:51:54.241Z,51.80
2022-11-29T02:54:26.205Z,64.33
2022-11-29T02:56:58.972Z,39.40
2022-11-29T03:00:08.129Z,73.20
2022-11-29T03:02:49.375Z,30.87
2022-11-29T03:05:39.667Z,25.53
2022-11-29T03:08:27.364Z,24.57
2022-11-29T03:11:10.986Z,23.10
2022-11-29T03:14:11.873Z,20.53
2022-11-29T03:16:43.819Z,19.47
2022-11-29T03:19:32.523Z,20.77
2022-11-29T03:22:13.177Z,19.23
2022-11-29T03:24:50.957Z,19.47
2022-11-29T03:27:23.162Z,19.93
2022-11-29T03:30:00.724Z,24.97
2022-11-29T03:32:51.833Z,21.00
2022-11-29T03:35:36.496Z,21.40
2022-11-29T03:38:28.364Z,23.10
2022-11-29T03:41:13.246Z,29.93
2022-11-29T03:43:53.396Z,27.37
2022-11-29T03:46:37.429Z,35.77
2022-11-29T03:49:24.550Z,38.10
2022-11-29T03:51:57.348Z,31.73
2022-11-29T03:54:56.125Z,59.83
2022-11-29T03:57:31.118Z,55.83
2022-11-29T04:00:02.062Z,33.70
2022-11-29T04:02:35.065Z,36.23
2022-11-29T04:05:16.558Z,29.50
2022-11-29T04:07:58.347Z,41.37
2022-11-29T04:10:37.332Z,29.47
2022-11-29T04:13:37.001Z,47.23
2022-11-29T04:16:51.793Z,31.53
2022-11-29T04:19:27.206Z,21.30
2022-11-29T04:21:56.897Z,28.37
2022-11-29T04:24:29.370Z,23.17
2022-11-29T04:27:33.109Z,34.23
2022-11-29T04:30:22.763Z,18.47
2022-11-29T04:33:13.659Z,18.37
2022-11-29T04:35:49.557Z,35.83
2022-11-29T04:38:40.656Z,38.40
2022-11-29T04:41:36.468Z,26.00
2022-11-29T04:44:21.935Z,29.37
2022-11-29T04:46:55.569Z,25.47
2022-11-29T04:49:44.982Z,23.03
2022-11-29T04:52:23.828Z,37.53
2022-11-29T04:55:26.200Z,25.00
2022-11-29T04:58:14.164Z,52.43
2022-11-29T05:01:06.909Z,31.53
2022-11-29T05:03:45.716Z,27.67
2022-11-29T05:06:19.334Z,34.80
2022-11-29T05:08:55.055Z,35.53
2022-11-29T05:11:26.879Z,24.93
2022-11-29T05:14:15.725Z,22.77
2022-11-29T05:17:13.245Z,22.00
2022-11-29T05:19:48.574Z,19.87
2022-11-29T05:22:44.325Z,30.73
2022-11-29T05:25:15.617Z,25.13
2022-11-29T05:28:10.266Z,22.60
2022-11-29T05:31:12.586Z,23.27
2022-11-29T05:34:06.381Z,21.13
2022-11-29T05:36:42.187Z,20.83
2022-11-29T05:39:37.053Z,19.00
2022-11-29T05:42:31.668Z,23.23
2022-11-29T05:45:08.559Z,26.60
2022-11-29T05:47:40.288Z,51.50
2022-11-29T05:50:12.597Z,21.67
2022-11-29T05:52:58.984Z,61.20
2022-11-29T05:55:49.998Z,81.57
2022-11-29T05:58:38.473Z,112.60
2022-11-29T06:01:43.107Z,57.57
2022-11-29T06:04:20.279Z,19.90
2022-11-29T06:06:48.260Z,59.27
2022-11-29T06:09:30.924Z,40.67
2022-11-29T06:12:10.417Z,35.40
2022-11-29T06:14:40.080Z,30.00
2022-11-29T06:17:39.395Z,27.67
2022-11-29T06:20:11.111Z,32.00
2022-11-29T06:23:13.439Z,27.03
2022-11-29T06:26:04.114Z,35.10
2022-11-29T06:29:07.902Z,23.47
2022-11-29T06:31:44.009Z,53.90
2022-11-29T06:34:11.138Z,19.43
2022-11-29T06:37:05.566Z,27.53
2022-11-29T06:39:32.759Z,22.60
2022-11-29T06:41:59.527Z,21.30
2022-11-29T06:44:26.620Z,26.53
2022-11-29T06:47:06.808Z,27.33
2022-11-29T06:49:42.164Z,22.53
2022-11-29T06:52:17.823Z,27.47
2022-11-29T06:54:53.893Z,70.40
2022-11-29T06:57:46.401Z,69.83
2022-11-29T07:00:22.770Z,55.43
2022-11-29T07:02:52.643Z,34.33
2022-11-29T07:05:35.099Z,55.30
2022-11-29T07:08:07.271Z,79.50
2022-11-29T07:10:37.092Z,55.03
2022-11-29T07:13:04.325Z,62.87
2022-11-29T07:15:31.792Z,63.33
2022-11-29T07:18:15.585Z,64.13
2022-11-29T07:20:49.740Z,34.33
2022-11-29T07:23:36.800Z,55.13
2022-11-29T07:26:19.980Z,40.27
2022-11-29T07:28:54.397Z,45.80
2022-11-29T07:31:42.988Z,41.43
2022-11-29T07:34:47.836Z,36.57
2022-11-29T07:37:14.829Z,33.10
2022-11-29T07:39:50.646Z,31.63
2022-11-29T07:42:37.388Z,29.13
2022-11-29T07:45:21.701Z,23.80
2022-11-29T07:47:49.597Z,24.03
2022-11-29T07:50:16.569Z,24.63
2022-11-29T07:52:43.553Z,24.90
2022-11-29T07:55:18.450Z,26.37
2022-11-29T07:57:46.169Z,25.60
2022-11-29T08:00:13.976Z,23.00
2022-11-29T08:02:40.941Z,26.27
2022-11-29T08:05:08.678Z,24.03
2022-11-29T08:07:36.472Z,23.57
2022-11-29T08:10:04.316Z,23.87
2022-11-29T08:12:31.323Z,27.13
2022-11-29T08:14:58.204Z,27.67
2022-11-29T08:17:25.965Z,25.00
2022-11-29T08:19:52.935Z,26.10
2022-11-29T08:22:19.785Z,26.97
2022-11-29T08:24:46.888Z,29.33
2022-11-29T08:27:13.869Z,28.07
2022-11-29T08:29:40.659Z,30.17
2022-11-29T08:32:09.063Z,32.50
2022-11-29T08:34:35.860Z,30.70
2022-11-29T08:37:02.632Z,27.20
2022-11-29T08:39:32.002Z,26.73
2022-11-29T08:41:58.838Z,34.60
2022-11-29T08:44:26.202Z,37.63
2022-11-29T08:47:11.817Z,33.30
2022-11-29T08:49:59.558Z,31.23
2022-11-29T08:52:44.755Z,24.60
2022-11-29T08:55:11.625Z,23.27
2022-11-29T08:57:40.584Z,26.30
2022-11-29T09:00:09.425Z,28.37
2022-11-29T09:02:36.587Z,33.43
2022-11-29T09:05:04.951Z,34.43
2022-11-29T09:07:31.792Z,33.93
2022-11-29T09:09:58.761Z,28.90
2022-11-29T09:12:25.567Z,36.40
2022-11-29T09:14:52.371Z,40.73
2022-11-29T09:17:19.205Z,32.63
2022-11-29T09:19:47.304Z,34.23
2022-11-29T09:22:14.138Z,40.70
2022-11-29T09:24:40.997Z,37.40
2022-11-29T09:27:07.865Z,40.07
2022-11-29T09:29:34.677Z,38.60
2022-11-29T09:32:01.995Z,32.03
2022-11-29T09:34:28.783Z,38.93
2022-11-29T09:36:55.626Z,39.63
2022-11-29T09:39:22.403Z,29.80
2022-11-29T09:42:14.910Z,31.07
2022-11-29T09:45:05.167Z,33.60
2022-11-29T09:47:33.137Z,35.00
2022-11-29T09:50:31.997Z,42.77
2022-11-29T09:53:22.913Z,38.83
2022-11-29T09:55:52.785Z,39.60
2022-11-29T10:11:59.993Z,38.60
2022-11-29T10:19:00.125Z,20.88
2022-11-29T10:27:52.140Z,34.78
2022-11-29T10:30:19.026Z,32.88
2022-11-29T10:35:24.220Z,36.67
2022-11-29T10:38:22.590Z,33.73
2022-11-29T10:40:39.593Z,31.80
2022-11-29T10:43:06.416Z,33.03
2022-11-29T10:45:45.995Z,35.70
2022-11-29T10:48:23.632Z,25.43
2022-11-29T10:50:51.270Z,27.17
2022-11-29T10:53:20.134Z,31.43
2022-11-29T10:55:52.090Z,39.37
2022-11-29T10:58:24.809Z,36.67
2022-11-29T11:01:07.974Z,30.27
2022-11-29T11:03:39.361Z,32.23
2022-11-29T11:12:18.109Z,26.48
2022-11-29T11:17:26.197Z,33.13
2022-11-29T11:20:05.787Z,31.13
2022-11-29T11:22:33.048Z,31.33
2022-11-29T11:25:07.932Z,27.13
2022-11-29T11:27:39.722Z,26.30
2022-11-29T11:30:22.862Z,27.33
2022-11-29T11:33:09.506Z,30.53
2022-11-29T11:35:37.360Z,29.17
2022-11-29T11:38:04.275Z,25.97
2022-11-29T11:40:31.461Z,25.47
2022-11-29T11:42:59.028Z,29.93
2022-11-29T11:45:32.986Z,25.77
2022-11-29T11:48:12.837Z,24.60
2022-11-29T11:50:44.761Z,23.00
2022-11-29T11:53:44.458Z,25.92
2022-11-29T11:58:49.775Z,30.30
2022-11-29T12:08:08.091Z,29.48
2022-11-29T12:10:35.418Z,26.10
2022-11-29T12:13:02.198Z,26.63
2022-11-29T12:15:34.112Z,26.77
2022-11-29T12:18:12.370Z,24.00
2022-11-29T12:20:57.325Z,29.17
2022-11-29T12:23:27.388Z,24.40
2022-11-29T12:26:04.350Z,25.23
2022-11-29T12:28:35.523Z,27.17
2022-11-29T12:34:43.602Z,21.73
2022-11-29T12:37:41.347Z,21.40
2022-11-29T12:40:28.295Z,20.40
2022-11-29T12:43:13.147Z,19.03
2022-11-29T12:45:55.821Z,22.67
2022-11-29T12:48:31.492Z,17.88
2022-11-29T12:51:13.214Z,20.90
2022-11-29T12:53:45.794Z,22.37
2022-11-29T12:56:24.136Z,20.67
2022-11-29T12:58:54.206Z,17.15
2022-11-29T13:01:42.611Z,16.58
2022-11-29T13:04:22.464Z,19.38
2022-11-29T13:06:56.339Z,19.50
2022-11-29T13:09:41.994Z,16.33
2022-11-29T13:12:33.079Z,17.07
2022-11-29T13:15:07.218Z,17.53
2022-11-29T13:18:09.581Z,20.90
2022-11-29T13:20:53.089Z,21.53
2022-11-29T13:23:46.000Z,18.37
2022-11-29T13:26:19.737Z,19.53
2022-11-29T13:28:46.719Z,24.60
2022-11-29T13:31:23.363Z,19.47
2022-11-29T13:34:07.701Z,26.25
2022-11-29T13:36:52.699Z,27.08
2022-11-29T13:42:35.463Z,25.50
2022-11-29T13:45:13.358Z,23.00
2022-11-29T13:48:42.818Z,22.33
2022-11-29T13:51:29.962Z,26.68
2022-11-29T13:54:45.159Z,27.35
2022-11-29T14:01:01.874Z,17.35
2022-11-29T14:07:33.329Z,24.80
2022-11-29T14:15:33.295Z,28.45
2022-11-29T14:18:01.214Z,32.47
2022-11-29T14:20:28.718Z,35.90
2022-11-29T14:23:04.649Z,27.67
2022-11-29T14:25:51.073Z,27.48
2022-11-29T14:28:18.683Z,28.07
2022-11-29T14:30:46.722Z,30.53
2022-11-29T14:33:34.498Z,35.87
2022-11-29T14:36:23.238Z,37.47
2022-11-29T14:38:52.817Z,35.13
2022-11-29T14:41:22.921Z,29.70
2022-11-29T14:43:49.700Z,41.17
2022-11-29T14:46:16.599Z,44.03
2022-11-29T14:48:57.034Z,45.13
2022-11-29T14:51:25.190Z,51.53
2022-11-29T14:54:12.256Z,52.43
2022-11-29T14:56:43.335Z,55.33
2022-11-29T14:59:49.481Z,68.80
2022-11-29T15:02:35.884Z,65.53
2022-11-29T15:05:13.561Z,77.37
2022-11-29T15:07:47.007Z,86.90
2022-11-29T15:10:18.173Z,84.70
2022-11-29T15:12:44.998Z,89.47
2022-11-29T15:15:32.953Z,83.73
2022-11-29T15:22:51.295Z,32.10
2022-11-29T15:25:32.994Z,77.80
2022-11-29T15:28:01.429Z,92.20
2022-11-29T15:30:41.305Z,94.57
2022-11-29T15:33:18.845Z,77.67
2022-11-29T15:35:50.415Z,84.57
2022-11-29T15:38:21.026Z,89.43
2022-11-29T15:40:55.245Z,90.90
2022-11-29T15:43:30.664Z,97.43
2022-11-29T15:45:58.200Z,106.43
2022-11-29T15:48:26.765Z,102.23
2022-11-29T15:51:00.204Z,84.07
2022-11-29T15:53:39.077Z,75.07
2022-11-29T15:56:20.484Z,94.83
2022-11-29T15:58:47.340Z,211.30
2022-11-29T16:01:20.676Z,66.40
2022-11-29T16:03:49.014Z,109.40
2022-11-29T16:06:33.200Z,120.70
2022-11-29T16:09:00.102Z,88.27
2022-11-29T16:11:27.878Z,106.50
2022-11-29T16:14:19.693Z,102.10
2022-11-29T16:16:47.658Z,72.00
2022-11-29T16:19:38.008Z,66.87
2022-11-29T16:22:11.920Z,145.00
2022-11-29T16:24:40.055Z,116.20
2022-11-29T16:27:07.001Z,130.77
2022-11-29T16:29:38.267Z,99.37
2022-11-29T16:32:31.549Z,51.37
2022-11-29T16:35:18.892Z,174.27
2022-11-29T16:37:45.875Z,158.73
2022-11-29T16:40:26.587Z,111.57
2022-11-29T16:43:24.093Z,114.20
2022-11-29T16:46:30.372Z,43.70
2022-11-29T16:48:58.333Z,139.67
2022-11-29T16:51:39.858Z,69.63
2022-11-29T16:54:27.433Z,170.37
2022-11-29T16:56:55.718Z,86.40
2022-11-29T16:59:28.046Z,136.40
2022-11-29T17:01:56.396Z,130.18
2022-11-29T17:04:24.840Z,137.20
2022-11-29T17:06:55.409Z,149.10
2022-11-29T17:30:36.318Z,158.77
2022-11-29T17:36:42.825Z,127.30
2022-11-29T17:43:13.279Z,42.85
2022-11-29T18:01:36.155Z,75.25
2022-11-29T18:16:17.697Z,65.60
2022-11-29T18:28:08.013Z,76.18
2022-11-29T18:30:48.865Z,72.53
2022-11-29T18:33:15.801Z,146.07
2022-11-29T18:35:42.629Z,144.80
2022-11-29T18:38:16.912Z,127.33
2022-11-29T18:40:45.727Z,165.90
2022-11-29T18:43:13.188Z,114.93
2022-11-29T18:45:40.075Z,76.60
2022-11-29T18:48:06.989Z,107.88
2022-11-29T18:50:33.749Z,117.00
2022-11-29T18:53:00.596Z,98.47
2022-11-29T18:55:27.470Z,76.30
2022-11-29T18:57:54.407Z,78.67
2022-11-29T19:00:21.672Z,90.60
2022-11-29T19:02:48.567Z,89.40
2022-11-29T19:07:48.505Z,58.77
2022-11-29T19:10:15.343Z,46.88
2022-11-29T19:12:42.132Z,54.57
2022-11-29T19:15:09.688Z,44.23
2022-11-29T19:17:41.687Z,45.33
2022-11-29T19:20:10.802Z,41.17
2022-11-29T19:22:37.563Z,48.63
2022-11-29T19:25:04.856Z,52.47
2022-11-29T19:27:31.927Z,53.93
2022-11-29T19:29:58.745Z,54.40
2022-11-29T19:32:25.505Z,58.17
2022-11-29T19:34:52.740Z,62.73
2022-11-29T19:37:19.556Z,69.90
2022-11-29T19:39:46.542Z,56.10
2022-11-29T19:42:13.553Z,60.97
2022-11-29T19:45:14.711Z,65.07
2022-11-29T19:47:27.420Z,52.00
2022-11-29T19:50:42.849Z,55.92
2022-11-29T19:53:10.393Z,63.80
2022-11-29T19:55:43.899Z,84.30
2022-11-29T19:58:11.052Z,86.73
2022-11-29T20:00:37.916Z,85.20
2022-11-29T20:03:04.745Z,85.03
2022-11-29T20:05:37.549Z,72.91
2022-11-29T20:09:00.263Z,70.38
2022-11-29T20:14:56.733Z,58.20
2022-11-29T20:17:39.652Z,60.92
2022-11-29T20:25:23.564Z,63.06
2022-11-29T20:32:00.605Z,62.42
2022-11-29T20:55:32.686Z,69.35
2022-11-29T21:14:05.912Z,47.10
2022-11-29T21:20:36.433Z,58.22
2022-11-29T21:39:09.534Z,60.75
2022-11-29T21:45:39.985Z,65.53
2022-11-29T21:48:27.872Z,61.90
2022-11-29T22:06:59.692Z,49.25
2022-11-29T22:13:30.184Z,52.70
2022-11-29T22:32:02.326Z,39.72
2022-11-29T22:38:32.946Z,53.83
2022-11-29T22:59:06.018Z,34.25
2022-11-29T23:05:32.257Z,48.60
2022-11-29T23:11:39.030Z,34.20
2022-11-29T23:18:09.480Z,34.50
2022-11-29T23:36:03.428Z,54.00
2022-11-29T23:42:15.508Z,53.00
2022-11-29T23:48:45.978Z,38.38
